sensor_id;sensor_type;location;lat;lon;timestamp;P1;durP1;ratioP1;P2;durP2;ratioP2
10659;SDS011;5378;53.206;13.316;2024-03-02T00:02:22;54.87;;;17.87;;
10659;SDS011;5378;53.206;13.316;2024-03-02T00:05:11;59.03;;;20.80;;
10659;SDS011;5378;53.206;13.316;2024-03-02T00:07:59;49.47;;;19.03;;
10659;SDS011;5378;53.206;13.316;2024-03-02T00:10:48;57.10;;;18.90;;
10659;SDS011;5378;53.206;13.316;2024-03-02T00:13:35;64.63;;;19.97;;
10659;SDS011;5378;53.206;13.316;2024-03-02T00:16:23;73.70;;;22.77;;
10659;SDS011;5378;53.206;13.316;2024-03-02T00:19:10;46.77;;;18.67;;
10659;SDS011;5378;53.206;13.316;2024-03-02T00:22:00;54.37;;;20.47;;
10659;SDS011;5378;53.206;13.316;2024-03-02T00:24:48;51.30;;;19.67;;
10659;SDS011;5378;53.206;13.316;2024-03-02T00:27:36;62.23;;;18.10;;
10659;SDS011;5378;53.206;13.316;2024-03-02T00:30:37;57.60;;;18.70;;
10659;SDS011;5378;53.206;13.316;2024-03-02T00:33:40;63.77;;;20.53;;
10659;SDS011;5378;53.206;13.316;2024-03-02T00:36:28;43.23;;;17.30;;
10659;SDS011;5378;53.206;13.316;2024-03-02T00:39:16;57.27;;;20.10;;
10659;SDS011;5378;53.206;13.316;2024-03-02T00:42:03;53.33;;;17.67;;
10659;SDS011;5378;53.206;13.316;2024-03-02T00:44:53;51.13;;;17.80;;
10659;SDS011;5378;53.206;13.316;2024-03-02T00:47:40;49.07;;;19.40;;
10659;SDS011;5378;53.206;13.316;2024-03-02T00:50:27;47.70;;;20.00;;
10659;SDS011;5378;53.206;13.316;2024-03-02T00:53:14;54.77;;;20.37;;
10659;SDS011;5378;53.206;13.316;2024-03-02T00:56:03;52.03;;;17.73;;
10659;SDS011;5378;53.206;13.316;2024-03-02T00:58:55;66.07;;;21.63;;
10659;SDS011;5378;53.206;13.316;2024-03-02T01:01:44;56.27;;;21.60;;
10659;SDS011;5378;53.206;13.316;2024-03-02T01:04:32;58.73;;;22.50;;
10659;SDS011;5378;53.206;13.316;2024-03-02T01:07:19;59.17;;;19.83;;
10659;SDS011;5378;53.206;13.316;2024-03-02T01:10:06;53.30;;;20.60;;
10659;SDS011;5378;53.206;13.316;2024-03-02T01:12:55;68.97;;;21.13;;
10659;SDS011;5378;53.206;13.316;2024-03-02T01:15:42;43.03;;;16.90;;
10659;SDS011;5378;53.206;13.316;2024-03-02T01:18:30;67.03;;;22.70;;
10659;SDS011;5378;53.206;13.316;2024-03-02T01:21:17;50.70;;;19.93;;
10659;SDS011;5378;53.206;13.316;2024-03-02T01:24:05;47.70;;;19.17;;
10659;SDS011;5378;53.206;13.316;2024-03-02T01:26:52;54.27;;;19.60;;
10659;SDS011;5378;53.206;13.316;2024-03-02T01:29:39;54.60;;;21.40;;
10659;SDS011;5378;53.206;13.316;2024-03-02T01:32:26;55.17;;;18.47;;
10659;SDS011;5378;53.206;13.316;2024-03-02T01:35:15;54.57;;;19.60;;
10659;SDS011;5378;53.206;13.316;2024-03-02T01:38:03;64.47;;;21.43;;
10659;SDS011;5378;53.206;13.316;2024-03-02T01:40:51;49.70;;;19.83;;
10659;SDS011;5378;53.206;13.316;2024-03-02T01:43:40;60.17;;;20.10;;
10659;SDS011;5378;53.206;13.316;2024-03-02T01:46:27;51.07;;;18.70;;
10659;SDS011;5378;53.206;13.316;2024-03-02T01:49:15;53.77;;;19.30;;
10659;SDS011;5378;53.206;13.316;2024-03-02T01:52:03;46.27;;;17.70;;
10659;SDS011;5378;53.206;13.316;2024-03-02T01:54:50;51.43;;;20.30;;
10659;SDS011;5378;53.206;13.316;2024-03-02T01:57:38;49.13;;;19.30;;
10659;SDS011;5378;53.206;13.316;2024-03-02T02:00:25;76.50;;;21.93;;
10659;SDS011;5378;53.206;13.316;2024-03-02T02:03:12;52.93;;;21.27;;
10659;SDS011;5378;53.206;13.316;2024-03-02T02:05:59;47.60;;;18.23;;
10659;SDS011;5378;53.206;13.316;2024-03-02T02:08:48;55.83;;;20.73;;
10659;SDS011;5378;53.206;13.316;2024-03-02T02:11:35;58.90;;;20.13;;
10659;SDS011;5378;53.206;13.316;2024-03-02T02:14:22;51.87;;;18.67;;
10659;SDS011;5378;53.206;13.316;2024-03-02T02:17:09;49.77;;;18.57;;
10659;SDS011;5378;53.206;13.316;2024-03-02T02:19:56;47.40;;;20.10;;
10659;SDS011;5378;53.206;13.316;2024-03-02T02:22:53;54.77;;;19.07;;
10659;SDS011;5378;53.206;13.316;2024-03-02T02:25:44;55.37;;;20.77;;
10659;SDS011;5378;53.206;13.316;2024-03-02T02:28:31;54.83;;;20.10;;
10659;SDS011;5378;53.206;13.316;2024-03-02T02:31:18;61.33;;;20.83;;
10659;SDS011;5378;53.206;13.316;2024-03-02T02:34:05;59.93;;;20.50;;
10659;SDS011;5378;53.206;13.316;2024-03-02T02:36:53;59.93;;;19.97;;
10659;SDS011;5378;53.206;13.316;2024-03-02T02:39:41;50.20;;;20.77;;
10659;SDS011;5378;53.206;13.316;2024-03-02T02:42:28;45.10;;;17.57;;
10659;SDS011;5378;53.206;13.316;2024-03-02T02:45:16;47.50;;;18.23;;
10659;SDS011;5378;53.206;13.316;2024-03-02T02:48:03;43.83;;;17.40;;
10659;SDS011;5378;53.206;13.316;2024-03-02T02:50:51;42.53;;;16.80;;
10659;SDS011;5378;53.206;13.316;2024-03-02T02:53:39;45.23;;;19.40;;
10659;SDS011;5378;53.206;13.316;2024-03-02T02:56:28;59.07;;;17.27;;
10659;SDS011;5378;53.206;13.316;2024-03-02T02:59:15;62.27;;;21.63;;
10659;SDS011;5378;53.206;13.316;2024-03-02T03:02:02;40.33;;;18.43;;
10659;SDS011;5378;53.206;13.316;2024-03-02T03:04:49;44.13;;;18.53;;
10659;SDS011;5378;53.206;13.316;2024-03-02T03:07:37;52.30;;;16.90;;
10659;SDS011;5378;53.206;13.316;2024-03-02T03:10:25;60.23;;;21.07;;
10659;SDS011;5378;53.206;13.316;2024-03-02T03:13:14;62.97;;;23.27;;
10659;SDS011;5378;53.206;13.316;2024-03-02T03:16:02;61.67;;;22.00;;
10659;SDS011;5378;53.206;13.316;2024-03-02T03:18:51;56.57;;;19.97;;
10659;SDS011;5378;53.206;13.316;2024-03-02T03:21:39;50.47;;;19.80;;
10659;SDS011;5378;53.206;13.316;2024-03-02T03:24:26;51.57;;;19.07;;
10659;SDS011;5378;53.206;13.316;2024-03-02T03:27:13;53.43;;;21.50;;
10659;SDS011;5378;53.206;13.316;2024-03-02T03:30:01;56.43;;;20.20;;
10659;SDS011;5378;53.206;13.316;2024-03-02T03:32:49;50.40;;;19.70;;
10659;SDS011;5378;53.206;13.316;2024-03-02T03:35:36;59.97;;;21.40;;
10659;SDS011;5378;53.206;13.316;2024-03-02T03:38:24;42.30;;;17.97;;
10659;SDS011;5378;53.206;13.316;2024-03-02T03:41:11;46.47;;;20.20;;
10659;SDS011;5378;53.206;13.316;2024-03-02T03:43:57;50.17;;;19.60;;
10659;SDS011;5378;53.206;13.316;2024-03-02T03:46:46;51.57;;;19.70;;
10659;SDS011;5378;53.206;13.316;2024-03-02T03:49:33;49.97;;;18.40;;
10659;SDS011;5378;53.206;13.316;2024-03-02T03:52:20;43.40;;;18.10;;
10659;SDS011;5378;53.206;13.316;2024-03-02T03:55:07;48.43;;;18.37;;
10659;SDS011;5378;53.206;13.316;2024-03-02T03:57:55;41.23;;;17.87;;
10659;SDS011;5378;53.206;13.316;2024-03-02T04:00:42;55.43;;;21.00;;
10659;SDS011;5378;53.206;13.316;2024-03-02T04:03:30;48.47;;;19.27;;
10659;SDS011;5378;53.206;13.316;2024-03-02T04:06:17;47.07;;;19.53;;
10659;SDS011;5378;53.206;13.316;2024-03-02T04:09:05;51.43;;;19.50;;
10659;SDS011;5378;53.206;13.316;2024-03-02T04:11:52;64.03;;;20.77;;
10659;SDS011;5378;53.206;13.316;2024-03-02T04:14:40;54.53;;;20.73;;
10659;SDS011;5378;53.206;13.316;2024-03-02T04:17:28;51.97;;;19.20;;
10659;SDS011;5378;53.206;13.316;2024-03-02T04:20:16;48.57;;;20.17;;
10659;SDS011;5378;53.206;13.316;2024-03-02T04:23:03;58.17;;;21.70;;
10659;SDS011;5378;53.206;13.316;2024-03-02T04:25:50;55.70;;;20.60;;
10659;SDS011;5378;53.206;13.316;2024-03-02T04:28:37;61.37;;;23.93;;
10659;SDS011;5378;53.206;13.316;2024-03-02T04:31:24;57.40;;;20.63;;
10659;SDS011;5378;53.206;13.316;2024-03-02T04:34:11;47.83;;;21.53;;
10659;SDS011;5378;53.206;13.316;2024-03-02T04:37:00;46.97;;;20.50;;
10659;SDS011;5378;53.206;13.316;2024-03-02T04:39:47;58.63;;;21.80;;
10659;SDS011;5378;53.206;13.316;2024-03-02T04:42:35;49.10;;;20.03;;
10659;SDS011;5378;53.206;13.316;2024-03-02T04:45:23;48.57;;;20.57;;
10659;SDS011;5378;53.206;13.316;2024-03-02T04:48:10;66.73;;;20.60;;
10659;SDS011;5378;53.206;13.316;2024-03-02T04:50:58;46.70;;;21.17;;
10659;SDS011;5378;53.206;13.316;2024-03-02T04:53:47;50.83;;;19.83;;
10659;SDS011;5378;53.206;13.316;2024-03-02T04:56:34;52.80;;;20.80;;
10659;SDS011;5378;53.206;13.316;2024-03-02T04:59:34;50.00;;;20.60;;
10659;SDS011;5378;53.206;13.316;2024-03-02T05:02:21;49.00;;;21.97;;
10659;SDS011;5378;53.206;13.316;2024-03-02T05:05:08;81.53;;;25.37;;
10659;SDS011;5378;53.206;13.316;2024-03-02T05:07:55;63.67;;;27.30;;
10659;SDS011;5378;53.206;13.316;2024-03-02T05:10:44;62.67;;;22.67;;
10659;SDS011;5378;53.206;13.316;2024-03-02T05:13:31;65.87;;;26.40;;
10659;SDS011;5378;53.206;13.316;2024-03-02T05:16:18;50.30;;;23.07;;
10659;SDS011;5378;53.206;13.316;2024-03-02T05:19:06;61.27;;;24.67;;
10659;SDS011;5378;53.206;13.316;2024-03-02T05:21:53;70.87;;;27.13;;
10659;SDS011;5378;53.206;13.316;2024-03-02T05:24:40;66.07;;;25.93;;
10659;SDS011;5378;53.206;13.316;2024-03-02T05:27:28;68.73;;;28.77;;
10659;SDS011;5378;53.206;13.316;2024-03-02T05:30:15;66.30;;;25.87;;
10659;SDS011;5378;53.206;13.316;2024-03-02T05:33:03;69.53;;;27.60;;
10659;SDS011;5378;53.206;13.316;2024-03-02T05:35:50;89.87;;;30.67;;
10659;SDS011;5378;53.206;13.316;2024-03-02T05:38:37;81.00;;;31.70;;
10659;SDS011;5378;53.206;13.316;2024-03-02T05:41:24;75.33;;;30.93;;
10659;SDS011;5378;53.206;13.316;2024-03-02T05:44:13;81.77;;;31.57;;
10659;SDS011;5378;53.206;13.316;2024-03-02T05:47:01;83.30;;;32.40;;
10659;SDS011;5378;53.206;13.316;2024-03-02T05:49:48;74.70;;;30.57;;
10659;SDS011;5378;53.206;13.316;2024-03-02T05:52:35;83.17;;;35.37;;
10659;SDS011;5378;53.206;13.316;2024-03-02T05:55:23;74.53;;;31.60;;
10659;SDS011;5378;53.206;13.316;2024-03-02T05:58:10;95.60;;;34.20;;
10659;SDS011;5378;53.206;13.316;2024-03-02T06:01:09;78.93;;;34.80;;
10659;SDS011;5378;53.206;13.316;2024-03-02T06:03:56;85.97;;;35.13;;
10659;SDS011;5378;53.206;13.316;2024-03-02T06:06:44;86.97;;;36.20;;
10659;SDS011;5378;53.206;13.316;2024-03-02T06:09:31;91.03;;;35.60;;
10659;SDS011;5378;53.206;13.316;2024-03-02T06:12:18;71.70;;;32.13;;
10659;SDS011;5378;53.206;13.316;2024-03-02T06:15:05;66.33;;;31.80;;
10659;SDS011;5378;53.206;13.316;2024-03-02T06:17:54;95.07;;;33.63;;
10659;SDS011;5378;53.206;13.316;2024-03-02T06:20:41;82.60;;;33.00;;
10659;SDS011;5378;53.206;13.316;2024-03-02T06:23:29;79.37;;;33.27;;
10659;SDS011;5378;53.206;13.316;2024-03-02T06:26:16;82.50;;;31.73;;
10659;SDS011;5378;53.206;13.316;2024-03-02T06:29:03;90.97;;;34.80;;
10659;SDS011;5378;53.206;13.316;2024-03-02T06:31:50;80.53;;;31.53;;
10659;SDS011;5378;53.206;13.316;2024-03-02T06:34:40;79.40;;;31.80;;
10659;SDS011;5378;53.206;13.316;2024-03-02T06:37:27;92.33;;;33.53;;
10659;SDS011;5378;53.206;13.316;2024-03-02T06:40:14;109.90;;;36.37;;
10659;SDS011;5378;53.206;13.316;2024-03-02T06:43:01;76.53;;;32.47;;
10659;SDS011;5378;53.206;13.316;2024-03-02T06:45:49;78.83;;;33.80;;
10659;SDS011;5378;53.206;13.316;2024-03-02T06:48:36;85.67;;;35.73;;
10659;SDS011;5378;53.206;13.316;2024-03-02T06:51:24;91.67;;;32.37;;
10659;SDS011;5378;53.206;13.316;2024-03-02T06:54:11;85.47;;;33.07;;
10659;SDS011;5378;53.206;13.316;2024-03-02T06:56:58;88.87;;;35.80;;
10659;SDS011;5378;53.206;13.316;2024-03-02T06:59:45;96.43;;;36.53;;
10659;SDS011;5378;53.206;13.316;2024-03-02T07:02:32;92.43;;;36.83;;
10659;SDS011;5378;53.206;13.316;2024-03-02T07:05:19;95.43;;;35.53;;
10659;SDS011;5378;53.206;13.316;2024-03-02T07:08:08;95.93;;;35.17;;
10659;SDS011;5378;53.206;13.316;2024-03-02T07:10:55;93.77;;;37.43;;
10659;SDS011;5378;53.206;13.316;2024-03-02T07:13:42;77.47;;;33.03;;
10659;SDS011;5378;53.206;13.316;2024-03-02T07:16:29;79.10;;;32.40;;
10659;SDS011;5378;53.206;13.316;2024-03-02T07:19:18;82.47;;;32.90;;
10659;SDS011;5378;53.206;13.316;2024-03-02T07:22:05;96.20;;;35.20;;
10659;SDS011;5378;53.206;13.316;2024-03-02T07:24:55;92.03;;;35.80;;
10659;SDS011;5378;53.206;13.316;2024-03-02T07:27:42;89.60;;;34.83;;
10659;SDS011;5378;53.206;13.316;2024-03-02T07:30:29;79.07;;;33.10;;
10659;SDS011;5378;53.206;13.316;2024-03-02T07:33:18;95.37;;;35.03;;
10659;SDS011;5378;53.206;13.316;2024-03-02T07:36:07;76.33;;;34.53;;
10659;SDS011;5378;53.206;13.316;2024-03-02T07:38:54;82.23;;;33.27;;
10659;SDS011;5378;53.206;13.316;2024-03-02T07:41:43;87.97;;;33.97;;
10659;SDS011;5378;53.206;13.316;2024-03-02T07:44:32;106.27;;;35.37;;
10659;SDS011;5378;53.206;13.316;2024-03-02T07:47:19;96.33;;;38.83;;
10659;SDS011;5378;53.206;13.316;2024-03-02T07:50:06;81.10;;;34.07;;
10659;SDS011;5378;53.206;13.316;2024-03-02T07:52:54;80.00;;;33.13;;
10659;SDS011;5378;53.206;13.316;2024-03-02T07:55:41;90.07;;;37.57;;
10659;SDS011;5378;53.206;13.316;2024-03-02T07:58:29;96.20;;;36.93;;
10659;SDS011;5378;53.206;13.316;2024-03-02T08:01:17;85.17;;;35.27;;
10659;SDS011;5378;53.206;13.316;2024-03-02T08:04:04;89.23;;;34.33;;
10659;SDS011;5378;53.206;13.316;2024-03-02T08:06:52;82.57;;;34.13;;
10659;SDS011;5378;53.206;13.316;2024-03-02T08:09:40;102.80;;;34.03;;
10659;SDS011;5378;53.206;13.316;2024-03-02T08:12:27;96.97;;;35.20;;
10659;SDS011;5378;53.206;13.316;2024-03-02T08:15:15;113.10;;;34.47;;
10659;SDS011;5378;53.206;13.316;2024-03-02T08:18:02;89.53;;;32.47;;
10659;SDS011;5378;53.206;13.316;2024-03-02T08:20:50;89.57;;;34.17;;
10659;SDS011;5378;53.206;13.316;2024-03-02T08:23:37;102.43;;;36.47;;
10659;SDS011;5378;53.206;13.316;2024-03-02T08:26:26;103.23;;;34.60;;
10659;SDS011;5378;53.206;13.316;2024-03-02T08:29:15;95.23;;;36.00;;
10659;SDS011;5378;53.206;13.316;2024-03-02T08:32:03;88.00;;;33.83;;
10659;SDS011;5378;53.206;13.316;2024-03-02T08:34:51;112.17;;;39.30;;
10659;SDS011;5378;53.206;13.316;2024-03-02T08:37:39;96.90;;;33.30;;
10659;SDS011;5378;53.206;13.316;2024-03-02T08:40:28;102.60;;;38.80;;
10659;SDS011;5378;53.206;13.316;2024-03-02T08:43:15;119.13;;;41.70;;
10659;SDS011;5378;53.206;13.316;2024-03-02T08:46:02;105.20;;;38.67;;
10659;SDS011;5378;53.206;13.316;2024-03-02T08:48:51;115.60;;;38.87;;
10659;SDS011;5378;53.206;13.316;2024-03-02T08:51:38;121.53;;;36.53;;
10659;SDS011;5378;53.206;13.316;2024-03-02T08:54:25;108.60;;;39.17;;
10659;SDS011;5378;53.206;13.316;2024-03-02T08:57:13;97.93;;;36.90;;
10659;SDS011;5378;53.206;13.316;2024-03-02T09:00:00;96.63;;;35.83;;
10659;SDS011;5378;53.206;13.316;2024-03-02T09:02:48;107.73;;;39.07;;
10659;SDS011;5378;53.206;13.316;2024-03-02T09:05:37;93.07;;;35.80;;
10659;SDS011;5378;53.206;13.316;2024-03-02T09:08:24;105.60;;;37.70;;
10659;SDS011;5378;53.206;13.316;2024-03-02T09:11:11;117.77;;;34.57;;
10659;SDS011;5378;53.206;13.316;2024-03-02T09:13:59;95.77;;;35.47;;
10659;SDS011;5378;53.206;13.316;2024-03-02T09:16:46;116.33;;;36.07;;
10659;SDS011;5378;53.206;13.316;2024-03-02T09:19:33;102.03;;;37.07;;
10659;SDS011;5378;53.206;13.316;2024-03-02T09:22:21;97.10;;;36.10;;
10659;SDS011;5378;53.206;13.316;2024-03-02T09:25:09;97.50;;;36.77;;
10659;SDS011;5378;53.206;13.316;2024-03-02T09:27:56;82.57;;;35.57;;
10659;SDS011;5378;53.206;13.316;2024-03-02T09:30:43;89.63;;;34.80;;
10659;SDS011;5378;53.206;13.316;2024-03-02T09:33:30;129.63;;;43.90;;
10659;SDS011;5378;53.206;13.316;2024-03-02T09:36:17;103.07;;;40.43;;
10659;SDS011;5378;53.206;13.316;2024-03-02T09:39:08;96.03;;;35.10;;
10659;SDS011;5378;53.206;13.316;2024-03-02T09:41:55;82.03;;;31.03;;
10659;SDS011;5378;53.206;13.316;2024-03-02T09:44:43;88.13;;;32.63;;
10659;SDS011;5378;53.206;13.316;2024-03-02T09:47:30;83.43;;;27.80;;
10659;SDS011;5378;53.206;13.316;2024-03-02T09:50:17;86.00;;;31.33;;
10659;SDS011;5378;53.206;13.316;2024-03-02T09:53:04;79.10;;;30.10;;
10659;SDS011;5378;53.206;13.316;2024-03-02T09:55:55;82.50;;;30.23;;
10659;SDS011;5378;53.206;13.316;2024-03-02T09:58:42;74.50;;;29.30;;
10659;SDS011;5378;53.206;13.316;2024-03-02T10:01:30;92.63;;;35.43;;
10659;SDS011;5378;53.206;13.316;2024-03-02T10:04:17;83.77;;;32.30;;
10659;SDS011;5378;53.206;13.316;2024-03-02T10:07:12;77.23;;;29.00;;
10659;SDS011;5378;53.206;13.316;2024-03-02T10:10:00;75.87;;;28.70;;
10659;SDS011;5378;53.206;13.316;2024-03-02T10:13:04;66.13;;;25.60;;
10659;SDS011;5378;53.206;13.316;2024-03-02T10:15:52;60.50;;;24.57;;
10659;SDS011;5378;53.206;13.316;2024-03-02T10:18:40;60.13;;;25.83;;
10659;SDS011;5378;53.206;13.316;2024-03-02T10:21:27;66.97;;;27.27;;
10659;SDS011;5378;53.206;13.316;2024-03-02T10:24:14;65.37;;;27.00;;
10659;SDS011;5378;53.206;13.316;2024-03-02T10:27:01;51.60;;;21.73;;
10659;SDS011;5378;53.206;13.316;2024-03-02T10:29:49;60.07;;;23.20;;
10659;SDS011;5378;53.206;13.316;2024-03-02T10:32:36;55.50;;;23.50;;
10659;SDS011;5378;53.206;13.316;2024-03-02T10:35:25;53.23;;;22.70;;
10659;SDS011;5378;53.206;13.316;2024-03-02T10:38:12;59.07;;;22.93;;
10659;SDS011;5378;53.206;13.316;2024-03-02T10:41:00;49.17;;;20.50;;
10659;SDS011;5378;53.206;13.316;2024-03-02T10:43:49;50.10;;;19.60;;
10659;SDS011;5378;53.206;13.316;2024-03-02T10:46:42;51.73;;;22.80;;
10659;SDS011;5378;53.206;13.316;2024-03-02T10:49:32;50.23;;;22.47;;
10659;SDS011;5378;53.206;13.316;2024-03-02T10:52:19;50.23;;;20.73;;
10659;SDS011;5378;53.206;13.316;2024-03-02T10:55:09;52.00;;;21.43;;
10659;SDS011;5378;53.206;13.316;2024-03-02T10:57:58;47.57;;;21.50;;
10659;SDS011;5378;53.206;13.316;2024-03-02T11:00:48;46.97;;;21.43;;
10659;SDS011;5378;53.206;13.316;2024-03-02T11:03:37;45.10;;;21.43;;
10659;SDS011;5378;53.206;13.316;2024-03-02T11:06:25;50.77;;;22.33;;
10659;SDS011;5378;53.206;13.316;2024-03-02T11:09:14;43.30;;;20.03;;
10659;SDS011;5378;53.206;13.316;2024-03-02T11:12:03;44.23;;;20.63;;
10659;SDS011;5378;53.206;13.316;2024-03-02T11:14:56;40.13;;;19.80;;
10659;SDS011;5378;53.206;13.316;2024-03-02T11:17:46;45.00;;;20.33;;
10659;SDS011;5378;53.206;13.316;2024-03-02T11:20:37;49.43;;;19.47;;
10659;SDS011;5378;53.206;13.316;2024-03-02T11:23:31;50.03;;;19.20;;
10659;SDS011;5378;53.206;13.316;2024-03-02T11:26:19;48.80;;;18.17;;
10659;SDS011;5378;53.206;13.316;2024-03-02T11:29:07;39.43;;;18.83;;
10659;SDS011;5378;53.206;13.316;2024-03-02T11:31:57;40.90;;;18.90;;
10659;SDS011;5378;53.206;13.316;2024-03-02T11:34:46;40.50;;;18.47;;
10659;SDS011;5378;53.206;13.316;2024-03-02T11:37:36;45.57;;;17.77;;
10659;SDS011;5378;53.206;13.316;2024-03-02T11:40:24;39.77;;;18.70;;
10659;SDS011;5378;53.206;13.316;2024-03-02T11:43:11;34.00;;;15.57;;
10659;SDS011;5378;53.206;13.316;2024-03-02T11:45:59;34.17;;;16.53;;
10659;SDS011;5378;53.206;13.316;2024-03-02T11:48:49;37.47;;;16.57;;
10659;SDS011;5378;53.206;13.316;2024-03-02T11:51:36;33.73;;;14.93;;
10659;SDS011;5378;53.206;13.316;2024-03-02T11:54:39;34.70;;;16.67;;
10659;SDS011;5378;53.206;13.316;2024-03-02T11:57:32;31.70;;;15.30;;
10659;SDS011;5378;53.206;13.316;2024-03-02T12:00:19;35.00;;;14.63;;
10659;SDS011;5378;53.206;13.316;2024-03-02T12:03:07;34.63;;;16.00;;
10659;SDS011;5378;53.206;13.316;2024-03-02T12:05:55;35.43;;;15.70;;
10659;SDS011;5378;53.206;13.316;2024-03-02T12:08:43;35.87;;;17.07;;
10659;SDS011;5378;53.206;13.316;2024-03-02T12:11:33;29.97;;;14.63;;
10659;SDS011;5378;53.206;13.316;2024-03-02T12:14:20;29.83;;;14.83;;
10659;SDS011;5378;53.206;13.316;2024-03-02T12:17:07;37.37;;;15.93;;
10659;SDS011;5378;53.206;13.316;2024-03-02T12:19:55;35.53;;;16.40;;
10659;SDS011;5378;53.206;13.316;2024-03-02T12:22:43;31.63;;;15.03;;
10659;SDS011;5378;53.206;13.316;2024-03-02T12:25:31;35.40;;;14.93;;
10659;SDS011;5378;53.206;13.316;2024-03-02T12:28:20;36.03;;;14.27;;
10659;SDS011;5378;53.206;13.316;2024-03-02T12:31:08;30.57;;;13.80;;
10659;SDS011;5378;53.206;13.316;2024-03-02T12:33:55;30.20;;;13.80;;
10659;SDS011;5378;53.206;13.316;2024-03-02T12:36:42;32.53;;;14.93;;
10659;SDS011;5378;53.206;13.316;2024-03-02T12:39:33;33.10;;;15.77;;
10659;SDS011;5378;53.206;13.316;2024-03-02T12:42:20;32.53;;;14.30;;
10659;SDS011;5378;53.206;13.316;2024-03-02T12:45:08;29.10;;;14.63;;
10659;SDS011;5378;53.206;13.316;2024-03-02T12:47:55;27.77;;;13.03;;
10659;SDS011;5378;53.206;13.316;2024-03-02T12:50:42;24.73;;;12.33;;
10659;SDS011;5378;53.206;13.316;2024-03-02T12:53:30;34.37;;;13.50;;
10659;SDS011;5378;53.206;13.316;2024-03-02T12:56:17;33.73;;;12.63;;
10659;SDS011;5378;53.206;13.316;2024-03-02T12:59:05;24.07;;;13.13;;
10659;SDS011;5378;53.206;13.316;2024-03-02T13:01:54;30.73;;;13.27;;
10659;SDS011;5378;53.206;13.316;2024-03-02T13:04:43;33.33;;;13.20;;
10659;SDS011;5378;53.206;13.316;2024-03-02T13:07:30;35.10;;;12.50;;
10659;SDS011;5378;53.206;13.316;2024-03-02T13:10:19;28.50;;;13.70;;
10659;SDS011;5378;53.206;13.316;2024-03-02T13:13:06;25.03;;;12.30;;
10659;SDS011;5378;53.206;13.316;2024-03-02T13:15:54;28.40;;;13.37;;
10659;SDS011;5378;53.206;13.316;2024-03-02T13:18:44;30.27;;;13.37;;
10659;SDS011;5378;53.206;13.316;2024-03-02T13:21:31;30.20;;;13.73;;
10659;SDS011;5378;53.206;13.316;2024-03-02T13:24:19;28.47;;;12.93;;
10659;SDS011;5378;53.206;13.316;2024-03-02T13:27:06;30.47;;;13.03;;
10659;SDS011;5378;53.206;13.316;2024-03-02T13:29:53;26.57;;;12.20;;
10659;SDS011;5378;53.206;13.316;2024-03-02T13:32:41;26.53;;;12.13;;
10659;SDS011;5378;53.206;13.316;2024-03-02T13:35:29;25.30;;;12.87;;
10659;SDS011;5378;53.206;13.316;2024-03-02T13:38:17;30.30;;;12.17;;
10659;SDS011;5378;53.206;13.316;2024-03-02T13:41:04;21.17;;;10.97;;
10659;SDS011;5378;53.206;13.316;2024-03-02T13:43:51;31.60;;;12.87;;
10659;SDS011;5378;53.206;13.316;2024-03-02T13:46:38;33.57;;;14.00;;
10659;SDS011;5378;53.206;13.316;2024-03-02T13:49:25;25.87;;;12.20;;
10659;SDS011;5378;53.206;13.316;2024-03-02T13:52:20;31.20;;;12.43;;
10659;SDS011;5378;53.206;13.316;2024-03-02T13:55:07;27.37;;;12.37;;
10659;SDS011;5378;53.206;13.316;2024-03-02T13:57:54;29.97;;;13.43;;
10659;SDS011;5378;53.206;13.316;2024-03-02T14:00:41;30.37;;;12.80;;
10659;SDS011;5378;53.206;13.316;2024-03-02T14:03:31;29.13;;;14.60;;
10659;SDS011;5378;53.206;13.316;2024-03-02T14:06:18;29.43;;;14.27;;
10659;SDS011;5378;53.206;13.316;2024-03-02T14:09:07;31.83;;;13.20;;
10659;SDS011;5378;53.206;13.316;2024-03-02T14:11:54;30.60;;;12.77;;
10659;SDS011;5378;53.206;13.316;2024-03-02T14:14:42;27.13;;;13.10;;
10659;SDS011;5378;53.206;13.316;2024-03-02T14:17:29;32.80;;;13.30;;
10659;SDS011;5378;53.206;13.316;2024-03-02T14:20:17;32.20;;;12.40;;
10659;SDS011;5378;53.206;13.316;2024-03-02T14:23:07;24.10;;;11.40;;
10659;SDS011;5378;53.206;13.316;2024-03-02T14:25:57;28.13;;;12.40;;
10659;SDS011;5378;53.206;13.316;2024-03-02T14:28:45;36.23;;;14.33;;
10659;SDS011;5378;53.206;13.316;2024-03-02T14:31:32;24.67;;;12.53;;
10659;SDS011;5378;53.206;13.316;2024-03-02T14:34:20;23.13;;;11.63;;
10659;SDS011;5378;53.206;13.316;2024-03-02T14:37:08;23.70;;;12.07;;
10659;SDS011;5378;53.206;13.316;2024-03-02T14:39:55;23.37;;;12.13;;
10659;SDS011;5378;53.206;13.316;2024-03-02T14:42:44;22.83;;;11.33;;
10659;SDS011;5378;53.206;13.316;2024-03-02T14:45:33;30.70;;;11.90;;
10659;SDS011;5378;53.206;13.316;2024-03-02T14:48:21;27.97;;;11.80;;
10659;SDS011;5378;53.206;13.316;2024-03-02T14:51:08;24.27;;;11.20;;
10659;SDS011;5378;53.206;13.316;2024-03-02T14:53:56;26.00;;;12.90;;
10659;SDS011;5378;53.206;13.316;2024-03-02T14:56:43;25.93;;;11.30;;
10659;SDS011;5378;53.206;13.316;2024-03-02T14:59:31;25.73;;;11.70;;
10659;SDS011;5378;53.206;13.316;2024-03-02T15:02:19;26.97;;;10.73;;
10659;SDS011;5378;53.206;13.316;2024-03-02T15:05:07;25.10;;;10.13;;
10659;SDS011;5378;53.206;13.316;2024-03-02T15:07:54;22.37;;;11.07;;
10659;SDS011;5378;53.206;13.316;2024-03-02T15:10:44;22.40;;;10.27;;
10659;SDS011;5378;53.206;13.316;2024-03-02T15:13:31;20.97;;;11.40;;
10659;SDS011;5378;53.206;13.316;2024-03-02T15:16:20;24.57;;;10.40;;
10659;SDS011;5378;53.206;13.316;2024-03-02T15:19:07;23.03;;;10.60;;
10659;SDS011;5378;53.206;13.316;2024-03-02T15:21:54;26.33;;;12.17;;
10659;SDS011;5378;53.206;13.316;2024-03-02T15:24:41;25.17;;;11.13;;
10659;SDS011;5378;53.206;13.316;2024-03-02T15:27:29;26.80;;;11.43;;
10659;SDS011;5378;53.206;13.316;2024-03-02T15:30:17;32.23;;;13.23;;
10659;SDS011;5378;53.206;13.316;2024-03-02T15:33:05;31.07;;;12.10;;
10659;SDS011;5378;53.206;13.316;2024-03-02T15:35:52;29.20;;;13.37;;
10659;SDS011;5378;53.206;13.316;2024-03-02T15:38:41;29.10;;;13.00;;
10659;SDS011;5378;53.206;13.316;2024-03-02T15:41:28;29.87;;;13.67;;
10659;SDS011;5378;53.206;13.316;2024-03-02T15:44:15;27.73;;;13.27;;
10659;SDS011;5378;53.206;13.316;2024-03-02T15:47:02;42.83;;;13.30;;
10659;SDS011;5378;53.206;13.316;2024-03-02T15:49:51;27.93;;;13.03;;
10659;SDS011;5378;53.206;13.316;2024-03-02T15:52:39;25.83;;;12.67;;
10659;SDS011;5378;53.206;13.316;2024-03-02T15:55:26;30.73;;;13.83;;
10659;SDS011;5378;53.206;13.316;2024-03-02T15:58:13;37.37;;;13.57;;
10659;SDS011;5378;53.206;13.316;2024-03-02T16:01:01;27.17;;;12.50;;
10659;SDS011;5378;53.206;13.316;2024-03-02T16:03:48;33.13;;;13.20;;
10659;SDS011;5378;53.206;13.316;2024-03-02T16:06:38;24.50;;;11.43;;
10659;SDS011;5378;53.206;13.316;2024-03-02T16:09:25;26.33;;;13.00;;
10659;SDS011;5378;53.206;13.316;2024-03-02T16:12:12;29.83;;;13.67;;
10659;SDS011;5378;53.206;13.316;2024-03-02T16:15:00;26.30;;;10.90;;
10659;SDS011;5378;53.206;13.316;2024-03-02T16:17:48;27.03;;;12.97;;
10659;SDS011;5378;53.206;13.316;2024-03-02T16:20:35;278.60;;;78.03;;
10659;SDS011;5378;53.206;13.316;2024-03-02T16:23:24;109.07;;;40.43;;